Terminal Aerodrome Forecast
Issued by NWS

Home | Current Version | Previous Version | Graphics & Text | Print | Product List | Glossary On
Versions: 1 2 3 4 5 6 7 8 9 10 11 12 13 14 15 16 17 18 19 20 21 22 23 24 25 26 27 28
618
FTUS43 KLOT 232352
TAFMDW
TAF
KMDW 232352Z 2400/2424 07006KT 6SM -SHRA FEW010 OVC050
      TEMPO 2400/2401 11008KT 3SM SHRA SCT010 OVC025
     FM240100 07006KT 6SM -SHRA SCT020 OVC050
     FM240300 05005KT 5SM -SHRA SCT010 OVC020
     FM241000 03007KT 4SM BR VCSH SCT003 OVC008
     FM241500 03010KT P6SM VCSH SCT009 BKN015
     FM241800 02012G20KT P6SM SCT009 SCT020 BKN090=

USA.gov is the U.S. government's official web portal to all federal, state and local government web resources and services.